Terminal Aerodrome Forecast
Issued by NWS

Home | Current Version | Previous Version | Text Only | Print | Product List | Glossary On
Versions: 1 2 3 4 5 6 7 8 9 10 11 12 13 14 15 16 17
000
FTUS41 KPHI 042343
TAFMIV
TAF
KMIV 042343Z 0500/0524 08010KT P6SM BKN030
     FM050200 05008KT P6SM BKN015
      TEMPO 0509/0511 4SM BR BKN009
     FM051300 07012KT P6SM FEW020 SCT050=

USA.gov is the U.S. government's official web portal to all federal, state and local government web resources and services.